sensor_id;sensor_type;location;lat;lon;timestamp;P1;durP1;ratioP1;P2;durP2;ratioP2
6414;SDS011;3240;48.790;9.210;2023-05-29T00:00:36;6.70;;;4.50;;
6414;SDS011;3240;48.790;9.210;2023-05-29T00:03:04;6.97;;;4.10;;
6414;SDS011;3240;48.790;9.210;2023-05-29T00:05:32;4.60;;;3.95;;
6414;SDS011;3240;48.790;9.210;2023-05-29T00:08:01;6.00;;;3.87;;
6414;SDS011;3240;48.790;9.210;2023-05-29T00:10:29;4.10;;;3.70;;
6414;SDS011;3240;48.790;9.210;2023-05-29T00:12:57;4.33;;;3.67;;
6414;SDS011;3240;48.790;9.210;2023-05-29T00:15:26;4.33;;;3.50;;
6414;SDS011;3240;48.790;9.210;2023-05-29T00:17:54;5.73;;;4.10;;
6414;SDS011;3240;48.790;9.210;2023-05-29T00:20:22;4.90;;;3.90;;
6414;SDS011;3240;48.790;9.210;2023-05-29T00:22:51;7.13;;;3.87;;
6414;SDS011;3240;48.790;9.210;2023-05-29T00:25:19;6.33;;;4.60;;
6414;SDS011;3240;48.790;9.210;2023-05-29T00:27:47;6.53;;;4.20;;
6414;SDS011;3240;48.790;9.210;2023-05-29T00:30:16;6.53;;;4.57;;
6414;SDS011;3240;48.790;9.210;2023-05-29T00:32:44;5.37;;;4.12;;
6414;SDS011;3240;48.790;9.210;2023-05-29T00:35:12;5.53;;;4.00;;
6414;SDS011;3240;48.790;9.210;2023-05-29T00:37:41;4.93;;;3.80;;
6414;SDS011;3240;48.790;9.210;2023-05-29T00:40:09;4.63;;;3.80;;
6414;SDS011;3240;48.790;9.210;2023-05-29T00:42:37;4.60;;;3.90;;
6414;SDS011;3240;48.790;9.210;2023-05-29T00:45:06;4.77;;;3.80;;
6414;SDS011;3240;48.790;9.210;2023-05-29T00:47:34;5.50;;;3.77;;
6414;SDS011;3240;48.790;9.210;2023-05-29T00:50:03;4.60;;;3.93;;
6414;SDS011;3240;48.790;9.210;2023-05-29T00:52:31;4.80;;;3.53;;
6414;SDS011;3240;48.790;9.210;2023-05-29T00:55:00;4.87;;;3.73;;
6414;SDS011;3240;48.790;9.210;2023-05-29T00:57:28;4.40;;;3.63;;
6414;SDS011;3240;48.790;9.210;2023-05-29T00:59:56;5.70;;;3.80;;
6414;SDS011;3240;48.790;9.210;2023-05-29T01:02:25;5.40;;;4.10;;
6414;SDS011;3240;48.790;9.210;2023-05-29T01:04:53;6.10;;;3.77;;
6414;SDS011;3240;48.790;9.210;2023-05-29T01:07:21;5.87;;;3.93;;
6414;SDS011;3240;48.790;9.210;2023-05-29T01:09:49;5.67;;;4.00;;
6414;SDS011;3240;48.790;9.210;2023-05-29T01:12:23;5.50;;;4.00;;
6414;SDS011;3240;48.790;9.210;2023-05-29T01:14:52;5.03;;;3.67;;
6414;SDS011;3240;48.790;9.210;2023-05-29T01:17:19;6.17;;;4.20;;
6414;SDS011;3240;48.790;9.210;2023-05-29T01:19:59;6.47;;;3.90;;
6414;SDS011;3240;48.790;9.210;2023-05-29T01:22:25;7.20;;;4.33;;
6414;SDS011;3240;48.790;9.210;2023-05-29T01:24:49;4.30;;;3.30;;
6414;SDS011;3240;48.790;9.210;2023-05-29T01:27:17;6.50;;;4.00;;
6414;SDS011;3240;48.790;9.210;2023-05-29T01:29:45;6.47;;;4.33;;
6414;SDS011;3240;48.790;9.210;2023-05-29T01:32:13;5.00;;;4.10;;
6414;SDS011;3240;48.790;9.210;2023-05-29T01:34:42;5.43;;;4.00;;
6414;SDS011;3240;48.790;9.210;2023-05-29T01:37:10;6.00;;;4.07;;
6414;SDS011;3240;48.790;9.210;2023-05-29T01:39:38;5.20;;;4.17;;
6414;SDS011;3240;48.790;9.210;2023-05-29T01:42:07;4.20;;;3.43;;
6414;SDS011;3240;48.790;9.210;2023-05-29T01:44:35;5.40;;;3.97;;
6414;SDS011;3240;48.790;9.210;2023-05-29T01:47:03;4.80;;;3.73;;
6414;SDS011;3240;48.790;9.210;2023-05-29T01:49:32;5.67;;;3.83;;
6414;SDS011;3240;48.790;9.210;2023-05-29T01:52:00;4.62;;;3.50;;
6414;SDS011;3240;48.790;9.210;2023-05-29T01:54:29;5.00;;;4.03;;
6414;SDS011;3240;48.790;9.210;2023-05-29T01:56:57;5.90;;;4.30;;
6414;SDS011;3240;48.790;9.210;2023-05-29T01:59:25;5.43;;;3.80;;
6414;SDS011;3240;48.790;9.210;2023-05-29T02:01:54;4.83;;;3.70;;
6414;SDS011;3240;48.790;9.210;2023-05-29T02:04:22;6.60;;;4.67;;
6414;SDS011;3240;48.790;9.210;2023-05-29T02:06:50;6.17;;;4.30;;
6414;SDS011;3240;48.790;9.210;2023-05-29T02:09:19;7.60;;;4.40;;
6414;SDS011;3240;48.790;9.210;2023-05-29T02:11:47;6.43;;;4.40;;
6414;SDS011;3240;48.790;9.210;2023-05-29T02:14:15;5.03;;;3.97;;
6414;SDS011;3240;48.790;9.210;2023-05-29T02:16:44;7.20;;;4.20;;
6414;SDS011;3240;48.790;9.210;2023-05-29T02:19:12;6.20;;;4.60;;
6414;SDS011;3240;48.790;9.210;2023-05-29T02:21:40;5.57;;;3.63;;
6414;SDS011;3240;48.790;9.210;2023-05-29T02:24:09;5.10;;;3.87;;
6414;SDS011;3240;48.790;9.210;2023-05-29T02:26:37;5.10;;;3.90;;
6414;SDS011;3240;48.790;9.210;2023-05-29T02:29:05;4.80;;;3.63;;
6414;SDS011;3240;48.790;9.210;2023-05-29T02:31:34;4.80;;;3.70;;
6414;SDS011;3240;48.790;9.210;2023-05-29T02:34:02;5.47;;;3.80;;
6414;SDS011;3240;48.790;9.210;2023-05-29T02:36:30;4.30;;;3.80;;
6414;SDS011;3240;48.790;9.210;2023-05-29T02:38:58;6.77;;;3.80;;
6414;SDS011;3240;48.790;9.210;2023-05-29T02:41:27;4.40;;;3.87;;
6414;SDS011;3240;48.790;9.210;2023-05-29T02:43:55;3.80;;;3.40;;
6414;SDS011;3240;48.790;9.210;2023-05-29T02:46:23;3.90;;;3.40;;
6414;SDS011;3240;48.790;9.210;2023-05-29T02:48:52;5.23;;;3.97;;
6414;SDS011;3240;48.790;9.210;2023-05-29T02:51:20;4.60;;;3.60;;
6414;SDS011;3240;48.790;9.210;2023-05-29T02:53:48;3.50;;;3.03;;
6414;SDS011;3240;48.790;9.210;2023-05-29T02:56:17;5.97;;;4.22;;
6414;SDS011;3240;48.790;9.210;2023-05-29T02:58:45;5.10;;;3.57;;
6414;SDS011;3240;48.790;9.210;2023-05-29T03:01:13;6.83;;;4.10;;
6414;SDS011;3240;48.790;9.210;2023-05-29T03:03:42;4.95;;;3.70;;
6414;SDS011;3240;48.790;9.210;2023-05-29T03:06:10;6.03;;;4.10;;
6414;SDS011;3240;48.790;9.210;2023-05-29T03:08:38;5.23;;;3.90;;
6414;SDS011;3240;48.790;9.210;2023-05-29T03:11:08;5.53;;;3.70;;
6414;SDS011;3240;48.790;9.210;2023-05-29T03:13:38;6.73;;;4.03;;
6414;SDS011;3240;48.790;9.210;2023-05-29T03:16:06;4.40;;;3.80;;
6414;SDS011;3240;48.790;9.210;2023-05-29T03:18:34;4.83;;;3.60;;
6414;SDS011;3240;48.790;9.210;2023-05-29T03:21:03;4.17;;;3.57;;
6414;SDS011;3240;48.790;9.210;2023-05-29T03:23:31;4.50;;;3.37;;
6414;SDS011;3240;48.790;9.210;2023-05-29T03:25:59;6.03;;;3.70;;
6414;SDS011;3240;48.790;9.210;2023-05-29T03:28:28;4.87;;;3.97;;
6414;SDS011;3240;48.790;9.210;2023-05-29T03:30:56;4.70;;;3.77;;
6414;SDS011;3240;48.790;9.210;2023-05-29T03:33:24;4.53;;;3.93;;
6414;SDS011;3240;48.790;9.210;2023-05-29T03:35:53;7.10;;;4.47;;
6414;SDS011;3240;48.790;9.210;2023-05-29T03:38:21;5.37;;;3.70;;
6414;SDS011;3240;48.790;9.210;2023-05-29T03:40:49;5.10;;;3.80;;
6414;SDS011;3240;48.790;9.210;2023-05-29T03:43:18;7.17;;;3.97;;
6414;SDS011;3240;48.790;9.210;2023-05-29T03:45:46;4.80;;;3.47;;
6414;SDS011;3240;48.790;9.210;2023-05-29T03:48:14;4.40;;;3.53;;
6414;SDS011;3240;48.790;9.210;2023-05-29T03:50:44;5.43;;;4.57;;
6414;SDS011;3240;48.790;9.210;2023-05-29T03:53:11;5.20;;;4.10;;
6414;SDS011;3240;48.790;9.210;2023-05-29T03:55:39;6.50;;;3.80;;
6414;SDS011;3240;48.790;9.210;2023-05-29T03:58:08;4.93;;;3.50;;
6414;SDS011;3240;48.790;9.210;2023-05-29T04:00:36;6.43;;;3.90;;
6414;SDS011;3240;48.790;9.210;2023-05-29T04:03:04;7.07;;;4.47;;
6414;SDS011;3240;48.790;9.210;2023-05-29T04:05:33;5.00;;;3.87;;
6414;SDS011;3240;48.790;9.210;2023-05-29T04:08:01;5.20;;;3.30;;
6414;SDS011;3240;48.790;9.210;2023-05-29T04:10:29;4.73;;;3.90;;
6414;SDS011;3240;48.790;9.210;2023-05-29T04:12:58;4.90;;;3.50;;
6414;SDS011;3240;48.790;9.210;2023-05-29T04:15:27;5.77;;;3.83;;
6414;SDS011;3240;48.790;9.210;2023-05-29T04:17:55;5.15;;;3.87;;
6414;SDS011;3240;48.790;9.210;2023-05-29T04:20:23;4.27;;;3.33;;
6414;SDS011;3240;48.790;9.210;2023-05-29T04:22:52;4.83;;;3.87;;
6414;SDS011;3240;48.790;9.210;2023-05-29T04:25:20;5.07;;;3.80;;
6414;SDS011;3240;48.790;9.210;2023-05-29T04:27:48;7.03;;;4.27;;
6414;SDS011;3240;48.790;9.210;2023-05-29T04:30:17;4.30;;;3.20;;
6414;SDS011;3240;48.790;9.210;2023-05-29T04:32:45;5.23;;;3.50;;
6414;SDS011;3240;48.790;9.210;2023-05-29T04:35:13;5.90;;;4.20;;
6414;SDS011;3240;48.790;9.210;2023-05-29T04:37:42;5.10;;;3.50;;
6414;SDS011;3240;48.790;9.210;2023-05-29T04:40:10;5.20;;;3.70;;
6414;SDS011;3240;48.790;9.210;2023-05-29T04:42:38;4.83;;;3.40;;
6414;SDS011;3240;48.790;9.210;2023-05-29T04:45:07;5.25;;;3.70;;
6414;SDS011;3240;48.790;9.210;2023-05-29T04:47:36;4.77;;;3.73;;
6414;SDS011;3240;48.790;9.210;2023-05-29T04:50:04;5.27;;;3.90;;
6414;SDS011;3240;48.790;9.210;2023-05-29T04:52:33;5.10;;;3.70;;
6414;SDS011;3240;48.790;9.210;2023-05-29T04:55:01;4.50;;;3.40;;
6414;SDS011;3240;48.790;9.210;2023-05-29T04:57:29;5.00;;;3.97;;
6414;SDS011;3240;48.790;9.210;2023-05-29T04:59:58;6.17;;;3.80;;
6414;SDS011;3240;48.790;9.210;2023-05-29T05:02:26;4.53;;;3.70;;
6414;SDS011;3240;48.790;9.210;2023-05-29T05:04:54;4.93;;;3.93;;
6414;SDS011;3240;48.790;9.210;2023-05-29T05:07:23;4.90;;;3.97;;
6414;SDS011;3240;48.790;9.210;2023-05-29T05:09:51;5.03;;;3.70;;
6414;SDS011;3240;48.790;9.210;2023-05-29T05:12:19;3.70;;;3.07;;
6414;SDS011;3240;48.790;9.210;2023-05-29T05:14:48;5.60;;;3.77;;
6414;SDS011;3240;48.790;9.210;2023-05-29T05:17:16;5.97;;;3.77;;
6414;SDS011;3240;48.790;9.210;2023-05-29T05:19:44;5.67;;;3.97;;
6414;SDS011;3240;48.790;9.210;2023-05-29T05:22:13;5.43;;;3.92;;
6414;SDS011;3240;48.790;9.210;2023-05-29T05:24:41;4.30;;;3.40;;
6414;SDS011;3240;48.790;9.210;2023-05-29T05:27:09;4.30;;;3.70;;
6414;SDS011;3240;48.790;9.210;2023-05-29T05:29:38;3.77;;;3.33;;
6414;SDS011;3240;48.790;9.210;2023-05-29T05:32:06;4.93;;;3.97;;
6414;SDS011;3240;48.790;9.210;2023-05-29T05:34:34;3.90;;;3.47;;
6414;SDS011;3240;48.790;9.210;2023-05-29T05:37:03;4.97;;;3.67;;
6414;SDS011;3240;48.790;9.210;2023-05-29T05:39:31;3.83;;;3.43;;
6414;SDS011;3240;48.790;9.210;2023-05-29T05:41:59;4.77;;;3.90;;
6414;SDS011;3240;48.790;9.210;2023-05-29T05:44:28;5.30;;;3.47;;
6414;SDS011;3240;48.790;9.210;2023-05-29T05:46:56;4.40;;;3.40;;
6414;SDS011;3240;48.790;9.210;2023-05-29T05:49:24;5.60;;;3.77;;
6414;SDS011;3240;48.790;9.210;2023-05-29T05:51:53;7.03;;;3.90;;
6414;SDS011;3240;48.790;9.210;2023-05-29T05:54:21;5.10;;;3.83;;
6414;SDS011;3240;48.790;9.210;2023-05-29T05:56:49;6.33;;;3.40;;
6414;SDS011;3240;48.790;9.210;2023-05-29T05:59:18;4.30;;;3.40;;
6414;SDS011;3240;48.790;9.210;2023-05-29T06:01:46;5.30;;;3.60;;
6414;SDS011;3240;48.790;9.210;2023-05-29T06:04:14;4.67;;;3.43;;
6414;SDS011;3240;48.790;9.210;2023-05-29T06:06:43;4.78;;;3.40;;
6414;SDS011;3240;48.790;9.210;2023-05-29T06:09:11;4.20;;;3.67;;
6414;SDS011;3240;48.790;9.210;2023-05-29T06:11:39;4.37;;;3.77;;
6414;SDS011;3240;48.790;9.210;2023-05-29T06:14:08;6.53;;;4.30;;
6414;SDS011;3240;48.790;9.210;2023-05-29T06:16:36;6.63;;;4.30;;
6414;SDS011;3240;48.790;9.210;2023-05-29T06:19:04;5.03;;;3.70;;
6414;SDS011;3240;48.790;9.210;2023-05-29T06:21:33;4.27;;;3.30;;
6414;SDS011;3240;48.790;9.210;2023-05-29T06:24:01;3.93;;;3.03;;
6414;SDS011;3240;48.790;9.210;2023-05-29T06:26:29;7.50;;;3.67;;
6414;SDS011;3240;48.790;9.210;2023-05-29T06:28:58;4.10;;;3.17;;
6414;SDS011;3240;48.790;9.210;2023-05-29T06:31:26;3.47;;;3.00;;
6414;SDS011;3240;48.790;9.210;2023-05-29T06:33:54;6.30;;;4.07;;
6414;SDS011;3240;48.790;9.210;2023-05-29T06:36:23;4.80;;;3.50;;
6414;SDS011;3240;48.790;9.210;2023-05-29T06:38:51;6.27;;;3.60;;
6414;SDS011;3240;48.790;9.210;2023-05-29T06:41:19;4.23;;;3.13;;
6414;SDS011;3240;48.790;9.210;2023-05-29T06:43:48;5.22;;;3.55;;
6414;SDS011;3240;48.790;9.210;2023-05-29T06:46:16;3.30;;;3.00;;
6414;SDS011;3240;48.790;9.210;2023-05-29T06:48:44;4.03;;;3.07;;
6414;SDS011;3240;48.790;9.210;2023-05-29T06:51:13;5.53;;;3.20;;
6414;SDS011;3240;48.790;9.210;2023-05-29T06:53:41;4.30;;;3.60;;
6414;SDS011;3240;48.790;9.210;2023-05-29T06:56:09;3.87;;;2.93;;
6414;SDS011;3240;48.790;9.210;2023-05-29T06:58:38;4.23;;;3.13;;
6414;SDS011;3240;48.790;9.210;2023-05-29T07:01:06;4.33;;;3.03;;
6414;SDS011;3240;48.790;9.210;2023-05-29T07:03:34;3.90;;;3.10;;
6414;SDS011;3240;48.790;9.210;2023-05-29T07:06:03;3.70;;;3.30;;
6414;SDS011;3240;48.790;9.210;2023-05-29T07:08:31;3.80;;;3.40;;
6414;SDS011;3240;48.790;9.210;2023-05-29T07:11:00;5.17;;;3.70;;
6414;SDS011;3240;48.790;9.210;2023-05-29T07:13:28;5.20;;;3.30;;
6414;SDS011;3240;48.790;9.210;2023-05-29T07:15:56;5.13;;;3.30;;
6414;SDS011;3240;48.790;9.210;2023-05-29T07:18:24;7.60;;;3.65;;
6414;SDS011;3240;48.790;9.210;2023-05-29T07:20:55;4.30;;;3.63;;
6414;SDS011;3240;48.790;9.210;2023-05-29T07:23:21;3.90;;;2.97;;
6414;SDS011;3240;48.790;9.210;2023-05-29T07:25:49;3.37;;;3.07;;
6414;SDS011;3240;48.790;9.210;2023-05-29T07:28:18;3.87;;;3.20;;
6414;SDS011;3240;48.790;9.210;2023-05-29T07:30:46;4.33;;;2.77;;
6414;SDS011;3240;48.790;9.210;2023-05-29T07:33:14;3.93;;;3.13;;
6414;SDS011;3240;48.790;9.210;2023-05-29T07:35:43;3.63;;;3.00;;
6414;SDS011;3240;48.790;9.210;2023-05-29T07:38:11;3.50;;;3.13;;
6414;SDS011;3240;48.790;9.210;2023-05-29T07:40:39;5.43;;;2.87;;
6414;SDS011;3240;48.790;9.210;2023-05-29T07:43:08;3.40;;;2.97;;
6414;SDS011;3240;48.790;9.210;2023-05-29T07:45:36;4.17;;;2.70;;
6414;SDS011;3240;48.790;9.210;2023-05-29T07:48:04;3.17;;;2.73;;
6414;SDS011;3240;48.790;9.210;2023-05-29T07:50:33;2.60;;;2.40;;
6414;SDS011;3240;48.790;9.210;2023-05-29T07:53:01;3.47;;;2.63;;
6414;SDS011;3240;48.790;9.210;2023-05-29T07:55:29;3.60;;;2.90;;
6414;SDS011;3240;48.790;9.210;2023-05-29T07:57:58;3.40;;;2.70;;
6414;SDS011;3240;48.790;9.210;2023-05-29T08:00:26;2.80;;;2.60;;
6414;SDS011;3240;48.790;9.210;2023-05-29T08:02:54;4.70;;;2.83;;
6414;SDS011;3240;48.790;9.210;2023-05-29T08:05:23;2.67;;;2.40;;
6414;SDS011;3240;48.790;9.210;2023-05-29T08:07:51;3.37;;;2.70;;
6414;SDS011;3240;48.790;9.210;2023-05-29T08:10:19;5.70;;;3.30;;
6414;SDS011;3240;48.790;9.210;2023-05-29T08:12:48;3.60;;;2.80;;
6414;SDS011;3240;48.790;9.210;2023-05-29T08:15:16;3.23;;;2.53;;
6414;SDS011;3240;48.790;9.210;2023-05-29T08:17:44;4.17;;;3.00;;
6414;SDS011;3240;48.790;9.210;2023-05-29T08:20:13;3.97;;;3.10;;
6414;SDS011;3240;48.790;9.210;2023-05-29T08:22:41;3.30;;;3.00;;
6414;SDS011;3240;48.790;9.210;2023-05-29T08:25:09;2.60;;;2.40;;
6414;SDS011;3240;48.790;9.210;2023-05-29T08:27:38;4.20;;;3.00;;
6414;SDS011;3240;48.790;9.210;2023-05-29T08:30:06;5.17;;;3.40;;
6414;SDS011;3240;48.790;9.210;2023-05-29T08:32:35;5.82;;;3.60;;
6414;SDS011;3240;48.790;9.210;2023-05-29T08:35:03;5.17;;;3.90;;
6414;SDS011;3240;48.790;9.210;2023-05-29T08:37:32;3.97;;;3.00;;
6414;SDS011;3240;48.790;9.210;2023-05-29T08:40:00;4.20;;;3.40;;
6414;SDS011;3240;48.790;9.210;2023-05-29T08:42:29;3.97;;;3.10;;
6414;SDS011;3240;48.790;9.210;2023-05-29T08:44:57;7.73;;;3.57;;
6414;SDS011;3240;48.790;9.210;2023-05-29T08:47:26;4.73;;;3.70;;
6414;SDS011;3240;48.790;9.210;2023-05-29T08:49:54;3.40;;;3.00;;
6414;SDS011;3240;48.790;9.210;2023-05-29T08:52:23;3.73;;;2.87;;
6414;SDS011;3240;48.790;9.210;2023-05-29T08:54:51;8.40;;;2.80;;
6414;SDS011;3240;48.790;9.210;2023-05-29T08:57:20;4.10;;;3.33;;
6414;SDS011;3240;48.790;9.210;2023-05-29T08:59:49;3.33;;;3.03;;
6414;SDS011;3240;48.790;9.210;2023-05-29T09:02:16;3.13;;;2.80;;
6414;SDS011;3240;48.790;9.210;2023-05-29T09:04:44;3.87;;;3.20;;
6414;SDS011;3240;48.790;9.210;2023-05-29T09:07:12;3.83;;;2.75;;
6414;SDS011;3240;48.790;9.210;2023-05-29T09:09:41;3.20;;;2.40;;
6414;SDS011;3240;48.790;9.210;2023-05-29T09:12:09;2.93;;;2.63;;
6414;SDS011;3240;48.790;9.210;2023-05-29T09:14:39;3.30;;;2.70;;
6414;SDS011;3240;48.790;9.210;2023-05-29T09:17:06;4.60;;;3.50;;
6414;SDS011;3240;48.790;9.210;2023-05-29T09:19:34;3.17;;;2.87;;
6414;SDS011;3240;48.790;9.210;2023-05-29T09:22:03;4.73;;;3.03;;
6414;SDS011;3240;48.790;9.210;2023-05-29T09:24:32;2.90;;;2.67;;
6414;SDS011;3240;48.790;9.210;2023-05-29T09:27:00;3.30;;;3.00;;
6414;SDS011;3240;48.790;9.210;2023-05-29T09:29:30;3.20;;;2.83;;
6414;SDS011;3240;48.790;9.210;2023-05-29T09:31:57;3.20;;;2.83;;
6414;SDS011;3240;48.790;9.210;2023-05-29T09:34:25;2.50;;;2.30;;
6414;SDS011;3240;48.790;9.210;2023-05-29T09:36:53;3.00;;;2.70;;
6414;SDS011;3240;48.790;9.210;2023-05-29T09:39:22;3.53;;;2.90;;
6414;SDS011;3240;48.790;9.210;2023-05-29T09:41:50;3.53;;;3.20;;
6414;SDS011;3240;48.790;9.210;2023-05-29T09:44:19;4.10;;;3.15;;
6414;SDS011;3240;48.790;9.210;2023-05-29T09:46:48;3.47;;;3.00;;
6414;SDS011;3240;48.790;9.210;2023-05-29T09:49:15;3.50;;;3.00;;
6414;SDS011;3240;48.790;9.210;2023-05-29T09:51:44;3.97;;;2.60;;
6414;SDS011;3240;48.790;9.210;2023-05-29T09:54:13;3.90;;;3.00;;
6414;SDS011;3240;48.790;9.210;2023-05-29T09:56:42;3.80;;;3.30;;
6414;SDS011;3240;48.790;9.210;2023-05-29T09:59:10;4.20;;;3.30;;
6414;SDS011;3240;48.790;9.210;2023-05-29T10:01:39;3.50;;;2.93;;
6414;SDS011;3240;48.790;9.210;2023-05-29T10:04:08;5.13;;;2.87;;
6414;SDS011;3240;48.790;9.210;2023-05-29T10:06:36;3.70;;;3.10;;
6414;SDS011;3240;48.790;9.210;2023-05-29T10:09:05;4.80;;;3.30;;
6414;SDS011;3240;48.790;9.210;2023-05-29T10:11:33;4.40;;;3.22;;
6414;SDS011;3240;48.790;9.210;2023-05-29T10:14:01;3.60;;;2.90;;
6414;SDS011;3240;48.790;9.210;2023-05-29T10:16:30;4.07;;;3.00;;
6414;SDS011;3240;48.790;9.210;2023-05-29T10:18:58;4.15;;;3.40;;
6414;SDS011;3240;48.790;9.210;2023-05-29T10:21:27;3.73;;;2.93;;
6414;SDS011;3240;48.790;9.210;2023-05-29T10:23:55;4.07;;;2.97;;
6414;SDS011;3240;48.790;9.210;2023-05-29T10:26:24;3.83;;;2.93;;
6414;SDS011;3240;48.790;9.210;2023-05-29T10:29:02;2.83;;;2.53;;
6414;SDS011;3240;48.790;9.210;2023-05-29T10:31:26;3.53;;;3.00;;
6414;SDS011;3240;48.790;9.210;2023-05-29T10:33:56;3.30;;;3.00;;
6414;SDS011;3240;48.790;9.210;2023-05-29T10:36:21;3.10;;;2.70;;
6414;SDS011;3240;48.790;9.210;2023-05-29T10:38:49;3.20;;;2.67;;
6414;SDS011;3240;48.790;9.210;2023-05-29T10:41:33;3.60;;;2.50;;
6414;SDS011;3240;48.790;9.210;2023-05-29T10:44:02;3.07;;;2.20;;
6414;SDS011;3240;48.790;9.210;2023-05-29T10:49:04;3.00;;;2.67;;
6414;SDS011;3240;48.790;9.210;2023-05-29T10:51:32;2.63;;;2.30;;
6414;SDS011;3240;48.790;9.210;2023-05-29T10:54:01;4.17;;;2.93;;
6414;SDS011;3240;48.790;9.210;2023-05-29T10:56:29;3.40;;;3.08;;
6414;SDS011;3240;48.790;9.210;2023-05-29T10:58:58;3.23;;;2.63;;
6414;SDS011;3240;48.790;9.210;2023-05-29T11:01:26;2.73;;;2.50;;
6414;SDS011;3240;48.790;9.210;2023-05-29T11:04:26;4.73;;;3.13;;
6414;SDS011;3240;48.790;9.210;2023-05-29T11:06:37;3.30;;;2.57;;
6414;SDS011;3240;48.790;9.210;2023-05-29T11:09:05;3.47;;;2.90;;
6414;SDS011;3240;48.790;9.210;2023-05-29T11:11:34;4.00;;;3.10;;
6414;SDS011;3240;48.790;9.210;2023-05-29T11:14:03;3.90;;;2.97;;
6414;SDS011;3240;48.790;9.210;2023-05-29T11:16:37;3.63;;;2.90;;
6414;SDS011;3240;48.790;9.210;2023-05-29T11:19:07;4.00;;;2.53;;
6414;SDS011;3240;48.790;9.210;2023-05-29T11:21:49;4.00;;;2.90;;
6414;SDS011;3240;48.790;9.210;2023-05-29T11:24:02;4.57;;;3.00;;
6414;SDS011;3240;48.790;9.210;2023-05-29T11:26:31;3.77;;;3.00;;
6414;SDS011;3240;48.790;9.210;2023-05-29T11:29:00;3.97;;;2.77;;
6414;SDS011;3240;48.790;9.210;2023-05-29T11:31:28;3.75;;;2.90;;
6414;SDS011;3240;48.790;9.210;2023-05-29T11:33:58;2.67;;;2.20;;
6414;SDS011;3240;48.790;9.210;2023-05-29T11:36:25;3.60;;;2.70;;
6414;SDS011;3240;48.790;9.210;2023-05-29T11:38:52;4.00;;;2.40;;
6414;SDS011;3240;48.790;9.210;2023-05-29T11:41:21;3.97;;;2.63;;
6414;SDS011;3240;48.790;9.210;2023-05-29T11:43:59;4.63;;;3.10;;
6414;SDS011;3240;48.790;9.210;2023-05-29T11:46:26;3.07;;;2.73;;
6414;SDS011;3240;48.790;9.210;2023-05-29T11:48:55;2.87;;;2.47;;
6414;SDS011;3240;48.790;9.210;2023-05-29T11:51:23;4.83;;;2.70;;
6414;SDS011;3240;48.790;9.210;2023-05-29T11:53:51;5.23;;;3.47;;
6414;SDS011;3240;48.790;9.210;2023-05-29T11:56:20;2.63;;;2.30;;
6414;SDS011;3240;48.790;9.210;2023-05-29T11:58:48;3.35;;;2.80;;
6414;SDS011;3240;48.790;9.210;2023-05-29T12:01:17;2.47;;;2.27;;
6414;SDS011;3240;48.790;9.210;2023-05-29T12:03:45;3.30;;;2.80;;
6414;SDS011;3240;48.790;9.210;2023-05-29T12:06:13;2.78;;;2.47;;
6414;SDS011;3240;48.790;9.210;2023-05-29T12:08:41;4.10;;;2.90;;
6414;SDS011;3240;48.790;9.210;2023-05-29T12:11:10;2.90;;;2.37;;
6414;SDS011;3240;48.790;9.210;2023-05-29T12:13:38;3.63;;;2.90;;
6414;SDS011;3240;48.790;9.210;2023-05-29T12:16:06;4.30;;;2.63;;
6414;SDS011;3240;48.790;9.210;2023-05-29T12:18:35;3.70;;;2.57;;
6414;SDS011;3240;48.790;9.210;2023-05-29T12:21:03;3.03;;;2.43;;
6414;SDS011;3240;48.790;9.210;2023-05-29T12:23:31;2.90;;;2.60;;
6414;SDS011;3240;48.790;9.210;2023-05-29T12:26:00;2.87;;;2.43;;
6414;SDS011;3240;48.790;9.210;2023-05-29T12:28:28;2.93;;;2.63;;
6414;SDS011;3240;48.790;9.210;2023-05-29T12:30:58;2.43;;;2.17;;
6414;SDS011;3240;48.790;9.210;2023-05-29T12:33:29;2.60;;;2.40;;
6414;SDS011;3240;48.790;9.210;2023-05-29T12:36:03;4.90;;;2.90;;
6414;SDS011;3240;48.790;9.210;2023-05-29T12:38:29;2.53;;;2.17;;
6414;SDS011;3240;48.790;9.210;2023-05-29T12:40:58;2.50;;;2.10;;
6414;SDS011;3240;48.790;9.210;2023-05-29T12:43:26;2.60;;;2.40;;
6414;SDS011;3240;48.790;9.210;2023-05-29T12:45:55;2.93;;;2.33;;
6414;SDS011;3240;48.790;9.210;2023-05-29T12:48:26;2.47;;;2.17;;
6414;SDS011;3240;48.790;9.210;2023-05-29T12:50:51;3.97;;;3.07;;
6414;SDS011;3240;48.790;9.210;2023-05-29T12:53:19;3.63;;;2.27;;
6414;SDS011;3240;48.790;9.210;2023-05-29T12:55:48;2.77;;;2.30;;
6414;SDS011;3240;48.790;9.210;2023-05-29T12:58:16;3.30;;;2.77;;
6414;SDS011;3240;48.790;9.210;2023-05-29T13:00:44;4.13;;;2.57;;
6414;SDS011;3240;48.790;9.210;2023-05-29T13:03:14;3.43;;;2.13;;
6414;SDS011;3240;48.790;9.210;2023-05-29T13:05:42;2.30;;;2.07;;
6414;SDS011;3240;48.790;9.210;2023-05-29T13:08:10;2.97;;;2.40;;
6414;SDS011;3240;48.790;9.210;2023-05-29T13:10:39;4.17;;;2.90;;
6414;SDS011;3240;48.790;9.210;2023-05-29T13:13:07;3.27;;;2.60;;
6414;SDS011;3240;48.790;9.210;2023-05-29T13:15:35;3.93;;;2.40;;
6414;SDS011;3240;48.790;9.210;2023-05-29T13:18:04;2.70;;;2.35;;
6414;SDS011;3240;48.790;9.210;2023-05-29T13:20:32;2.47;;;2.23;;
6414;SDS011;3240;48.790;9.210;2023-05-29T13:23:01;3.10;;;2.80;;
6414;SDS011;3240;48.790;9.210;2023-05-29T13:25:30;4.40;;;2.80;;
6414;SDS011;3240;48.790;9.210;2023-05-29T13:27:58;3.13;;;2.40;;
6414;SDS011;3240;48.790;9.210;2023-05-29T13:30:27;3.60;;;3.10;;
6414;SDS011;3240;48.790;9.210;2023-05-29T13:32:55;3.10;;;2.70;;
6414;SDS011;3240;48.790;9.210;2023-05-29T13:35:23;2.63;;;2.33;;
6414;SDS011;3240;48.790;9.210;2023-05-29T13:37:52;3.57;;;2.70;;
6414;SDS011;3240;48.790;9.210;2023-05-29T13:40:20;5.33;;;2.90;;
6414;SDS011;3240;48.790;9.210;2023-05-29T13:42:48;3.33;;;2.97;;
6414;SDS011;3240;48.790;9.210;2023-05-29T13:45:17;3.10;;;2.70;;
6414;SDS011;3240;48.790;9.210;2023-05-29T13:47:45;3.07;;;2.40;;
6414;SDS011;3240;48.790;9.210;2023-05-29T13:50:13;5.40;;;2.60;;
6414;SDS011;3240;48.790;9.210;2023-05-29T13:52:42;3.40;;;2.90;;
6414;SDS011;3240;48.790;9.210;2023-05-29T13:55:10;2.60;;;2.33;;
6414;SDS011;3240;48.790;9.210;2023-05-29T13:57:38;2.50;;;2.30;;
6414;SDS011;3240;48.790;9.210;2023-05-29T14:00:07;4.10;;;2.57;;
6414;SDS011;3240;48.790;9.210;2023-05-29T14:02:36;2.63;;;2.43;;
6414;SDS011;3240;48.790;9.210;2023-05-29T14:05:04;2.73;;;2.43;;
6414;SDS011;3240;48.790;9.210;2023-05-29T14:07:33;3.43;;;2.60;;
6414;SDS011;3240;48.790;9.210;2023-05-29T14:10:01;2.60;;;2.33;;
6414;SDS011;3240;48.790;9.210;2023-05-29T14:12:29;3.00;;;2.70;;
6414;SDS011;3240;48.790;9.210;2023-05-29T14:14:58;4.60;;;2.53;;
6414;SDS011;3240;48.790;9.210;2023-05-29T14:17:26;2.87;;;2.30;;
6414;SDS011;3240;48.790;9.210;2023-05-29T14:19:54;3.03;;;2.50;;
6414;SDS011;3240;48.790;9.210;2023-05-29T14:22:23;2.40;;;2.20;;
6414;SDS011;3240;48.790;9.210;2023-05-29T14:24:51;2.87;;;2.57;;
6414;SDS011;3240;48.790;9.210;2023-05-29T14:27:19;3.20;;;2.50;;
6414;SDS011;3240;48.790;9.210;2023-05-29T14:29:48;2.80;;;2.20;;
6414;SDS011;3240;48.790;9.210;2023-05-29T14:32:16;2.90;;;2.60;;
6414;SDS011;3240;48.790;9.210;2023-05-29T14:34:44;2.37;;;2.10;;
6414;SDS011;3240;48.790;9.210;2023-05-29T14:37:13;2.33;;;2.13;;
6414;SDS011;3240;48.790;9.210;2023-05-29T14:39:41;5.10;;;2.40;;
6414;SDS011;3240;48.790;9.210;2023-05-29T14:42:09;3.50;;;2.90;;
6414;SDS011;3240;48.790;9.210;2023-05-29T14:44:38;2.50;;;2.30;;
6414;SDS011;3240;48.790;9.210;2023-05-29T14:47:06;3.30;;;2.70;;
6414;SDS011;3240;48.790;9.210;2023-05-29T14:49:34;2.23;;;2.03;;
6414;SDS011;3240;48.790;9.210;2023-05-29T14:52:03;2.60;;;2.40;;
6414;SDS011;3240;48.790;9.210;2023-05-29T14:54:31;2.33;;;2.13;;
6414;SDS011;3240;48.790;9.210;2023-05-29T14:57:00;2.90;;;2.43;;
6414;SDS011;3240;48.790;9.210;2023-05-29T14:59:28;2.23;;;2.03;;
6414;SDS011;3240;48.790;9.210;2023-05-29T15:01:56;3.27;;;2.40;;
6414;SDS011;3240;48.790;9.210;2023-05-29T15:04:25;2.47;;;2.27;;
6414;SDS011;3240;48.790;9.210;2023-05-29T15:06:53;2.47;;;2.27;;
6414;SDS011;3240;48.790;9.210;2023-05-29T15:09:21;2.67;;;2.43;;
6414;SDS011;3240;48.790;9.210;2023-05-29T15:11:50;2.70;;;2.50;;
6414;SDS011;3240;48.790;9.210;2023-05-29T15:14:18;2.57;;;2.30;;
6414;SDS011;3240;48.790;9.210;2023-05-29T15:16:46;2.60;;;2.33;;
6414;SDS011;3240;48.790;9.210;2023-05-29T15:19:15;2.93;;;2.70;;
6414;SDS011;3240;48.790;9.210;2023-05-29T15:21:43;2.70;;;2.30;;
6414;SDS011;3240;48.790;9.210;2023-05-29T15:24:11;2.43;;;2.23;;